Overview Statistics Trail Chart Weather Telemetry Raw packets
 

This is the latest recevied weather packets stored in our database for station/object W0CHP-13. If no packets are shown the sender has not sent any weather packets the latest 10 day(s).

<< 11 12 13 14 15 16 17 >>
Time Temp. Humidity Pressure Rain* Wind** Luminosity Snow
1788515115 25° C 91% 1008.5 hPa - - 0 W/m² -
1788514517 25.56° C 89% 1008.5 hPa - - 0 W/m² -
1788513915 25.56° C 86% 1008.9 hPa - - 0 W/m² -
1788513347 26.11° C 86% 1008.5 hPa - - 0 W/m² -
1788512716 26.67° C 83% 1008.5 hPa - - 0 W/m² -
1788512118 26.67° C 82% 1008.9 hPa - - 0 W/m² -
1788511516 27.22° C 81% 1008.5 hPa - - 0 W/m² -
1788510918 27.22° C 79% 1008.5 hPa - - 0 W/m² -
1788510317 27.22° C 80% 1008.2 hPa - - 0 W/m² -
1788509716 27.22° C 80% 1008.2 hPa - - 0 W/m² -
1788509118 27.22° C 80% 1008.2 hPa - - 0 W/m² -
1788508515 27.22° C 81% 1008.2 hPa - - 0 W/m² -
1788507917 27.22° C 83% 1008.2 hPa - - 0 W/m² -
1788507315 26.67° C 85% 1008.2 hPa - - 0 W/m² -
1788506718 26.11° C 87% 1008.2 hPa - - 0 W/m² -
1788506118 25.56° C 89% 1008.5 hPa - - 0 W/m² -
1788505515 25.56° C 91% 1008.5 hPa - - 0 W/m² -
1788504917 25.56° C 91% 1008.5 hPa - - 0 W/m² -
1788504315 25.56° C 91% 1008.5 hPa - - 0 W/m² -
1788503718 25° C 92% 1008.9 hPa - - 0 W/m² -
1788503116 25° C 92% 1008.9 hPa - - 0 W/m² -
1788502518 25° C 92% 1008.9 hPa - - 0 W/m² -
1788501918 25° C 91% 1008.9 hPa - - 0 W/m² -
1788501316 25° C 92% 1008.9 hPa - - 0 W/m² -
1788500718 25° C 91% 1008.9 hPa - - 0 W/m² -

* Rain since midnight (hover to see other rain measurements)
** Current wind speed in m/s (hover to see current wind gust speed)